Checkers Indoor Track 800 Meters

Buffalo, NY
February 22, 2020

Results Data Courtesy of:  Tempus Fugit
Overall Finish Order    Men - Age Groups      Women - Age Groups      Age Graded Overall
----------------------------------------------------------------------------------------------
Place  Name                      Time      Pace         InGroup      InSex    AGtime   AGpct  
----------------------------------------------------------------------------------------------
    1. Kody Parrott              0:02:17  0:04:36     1/MM            1/M    0:02:17  73.72% 
    2. Leonard Pietrafesa        0:02:19  0:04:40     2/MM            2/M    0:02:19  72.69% 
    3. Jacob Brill               0:02:19  0:04:40     3/MM            3/M    0:02:18  73.21% 
    4. Tom Williams              0:02:22  0:04:46     4/MM            4/M    0:02:22  71.13% 
    5. Konstantin Van Schendel   0:02:22  0:04:46     5/MM            5/M    0:02:18  73.09% 
    6. Cameron Eastland          0:02:24  0:04:50     6/MM            6/M    0:02:18  73.01% 
    7. Zachary Weeks             0:02:28  0:04:58     7/MM            7/M    0:02:26  69.37% 
    8. Brady Heeter              0:02:28  0:04:58     8/MM            8/M    0:02:15  75.08% 
    9. Dylan Stearns             0:02:31  0:05:04     9/MM            9/M    0:02:30  67.39% 
   10. Aidian O'Shea             0:02:31  0:05:04    10/MM           10/M    0:02:29  67.99% 
   11. Ian Shear                 0:02:42  0:05:26    11/MM           11/M    0:02:30  67.14% 
   12. Henry Chen                0:02:43  0:05:28    12/MM           12/M    0:02:39  63.67% 
   13. Omar Radwin               0:02:43  0:05:28    13/MM           13/M    0:02:43  61.96% 
   14. Jeff Sipos                0:02:44  0:05:30    14/MM           14/M    0:02:42  62.35% 
   15. Alex Glynn                0:02:46  0:05:34    15/MM           15/M    0:02:27  68.64% 
   16. Angelina Myles            0:02:46  0:05:34     1/FF            1/F    0:02:38  71.35% 
   17. James Clark               0:02:47  0:05:36    16/MM           16/M    0:02:14  75.65% 
   18. John Clark                0:02:47  0:05:36    17/MM           17/M    0:02:29  67.76% 
   19. Roger King                0:02:50  0:05:42    18/MM           18/M    0:02:50  59.41% 
   20. Casey Glynn               0:02:51  0:05:44    19/MM           19/M    0:02:32  66.63% 
   21. Michael Berger            0:02:51  0:05:44    20/MM           20/M    0:02:50  59.51% 
   22. John Salciccioli          0:02:55  0:05:52    21/MM           21/M    0:02:51  58.98% 
   23. Herman Van Leeuwen        0:02:58  0:05:58    22/MM           22/M    0:02:21  71.40% 
   24. Steve Mikos               0:02:58  0:05:58    23/MM           23/M    0:02:26  69.15% 
   25. Jason Shear               0:03:01  0:06:04    24/MM           24/M    0:02:46  60.88% 
   26. Frank Gioia               0:03:01  0:06:04    25/MM           25/M    0:02:18  73.19% 
   27. Curt Mancuso              0:03:04  0:06:10    26/MM           26/M    0:02:32  66.37% 
   28. Mike Baker                0:03:05  0:06:12    27/MM           27/M    0:02:50  59.56% 
   29. Olivia Ziegler            0:03:08  0:06:18     2/FF            2/F    0:02:37  72.18% 
   30. Matthew Zac               0:03:08  0:06:18    28/MM           28/M    0:02:42  62.41% 
   31. Glenn Osswald             0:03:17  0:06:36    29/MM           29/M    0:02:51  58.98% 
   32. Joe Chimino               0:03:18  0:06:38    30/MM           30/M    0:02:31  66.91% 
   33. Elizabeth Czapski         0:03:20  0:06:42     3/FF            3/F    0:03:20  56.50% 
   34. Colleen Magnussen         0:03:21  0:06:44     4/FF            4/F    0:02:39  71.29% 
   35. John Wayda                0:03:24  0:06:50    31/MM           31/M    0:03:02  55.47% 
   36. Bill McMullen             0:03:24  0:06:50    32/MM           32/M    0:02:34  65.64% 
   37. Chris Mattice             0:03:26  0:06:54    33/MM           33/M    0:03:20  50.59% 
   38. Frans DeWaal              0:03:26  0:06:54    34/MM           34/M    0:02:39  63.63% 
   39. Kelly Andolino            0:03:28  0:06:58     5/FF            5/F    0:03:20  56.37% 
   40. Mia Baxendale             0:03:29  0:07:00     6/FF            6/F    0:03:10  59.60% 
   41. Mary Bostwick             0:03:30  0:07:02     7/FF            7/F    0:03:30  53.81% 
   42. Henry Peterson            0:03:33  0:07:08    35/MM           35/M    0:02:57  56.99% 
   43. Fran Warthling            0:03:34  0:07:10    36/MM           36/M    0:03:01  55.66% 
   44. Toby Fredrick             0:03:35  0:07:13    37/MM           37/M    0:03:09  53.56% 
   45. Kaitlin Kasperski         0:03:37  0:07:17     8/FF            8/F    0:03:37  52.07% 
   46. Scott Bylewski            0:03:41  0:07:25    38/MM           38/M    0:03:17  51.20% 
   47. Christina Kinney          0:03:41  0:07:25     9/FF            9/F    0:03:41  51.13% 
   48. Nicole Mommertz           0:03:43  0:07:29    10/FF           10/F    0:03:43  50.67% 
   49. Andrea Kresman            0:03:50  0:07:43    11/FF           11/F    0:03:48  49.60% 
   50. Ann More                  0:03:51  0:07:45    12/FF           12/F    0:03:05  61.12% 
   51. Chris Klein               0:03:53  0:07:49    13/FF           13/F    0:03:15  58.04% 
   52. Michael Chapman           0:03:55  0:07:53    39/MM           39/M    0:03:55  42.98% 
   53. Debbie Miller             0:03:56  0:07:55    14/FF           14/F    0:03:03  61.63% 
   54. Jordan May                0:03:58  0:07:59    40/MM           40/M    0:03:44  45.05% 
   55. Heather Burger            0:03:58  0:07:59    15/FF           15/F    0:03:51  48.84% 
   56. Kim Kalman                0:03:59  0:08:01    16/FF           16/F    0:03:41  51.25% 
   57. Mike Beato                0:04:00  0:08:03    41/MM           41/M    0:03:06  54.19% 
   58. Victoria Crago            0:04:00  0:08:03    17/FF           17/F    0:03:38  51.90% 
   59. Danyelle Tower            0:04:01  0:08:05    18/FF           18/F    0:03:48  49.51% 
   60. Matt Parker               0:04:01  0:08:05    42/MM           42/M    0:03:39  46.15% 
   61. Kathi Black               0:04:02  0:08:07    19/FF           19/F    0:03:36  52.36% 
   62. Rob Vanderwerf            0:04:12  0:08:27    43/MM           43/M    0:03:35  46.88% 
   63. John Stewart              0:04:19  0:08:41    44/MM           44/M    0:04:06  41.03% 
   64. Cheryl Camillo            0:04:24  0:08:51    20/FF           20/F    0:03:17  57.28% 
   65. Orlando Hann              0:04:25  0:08:53    45/MM           45/M    0:03:32  47.67% 
   66. Laurie Grundner           0:04:29  0:09:01    21/FF           21/F    0:03:38  51.73% 
   67. James Smigelski           0:04:37  0:09:17    46/MM           46/M    0:03:16  51.49% 
   68. Tina Marie Drumm          0:04:43  0:09:29    22/FF           22/F    0:03:31  53.43% 
   69. Lisa Buzby                0:04:44  0:09:31    23/FF           23/F    0:04:07  45.77% 
   70. Rayann Wheeler            0:04:45  0:09:33    24/FF           24/F    0:04:23  42.98% 
   71. Mac Mackenzie             0:05:09  0:10:22    25/FF           25/F    0:02:49  66.85% 
   72. Ed Russell                0:05:17  0:10:38    47/MM           47/M    0:03:27  48.76% 
   73. Kristen Drozdzak          0:05:53  0:11:50    26/FF           26/F    0:04:59  37.80% 
   74. Mary Skinner              0:06:28  0:13:01    27/FF           27/F    0:06:04  31.03% 



Top of Page








Women - Age Group Results       Men - Age Groups      Overall Finish Order       Age Graded Overall
 
 
 
Women F
------------------------------------------------------------------
Place  Name                      Time      Pace    OvrAll   InSex
------------------------------------------------------------------
    1. Angelina Myles             0:02:46   0:05:34     16     1/F
    2. Olivia Ziegler             0:03:08   0:06:18     29     2/F
    3. Elizabeth Czapski          0:03:20   0:06:42     33     3/F
    4. Colleen Magnussen          0:03:21   0:06:44     34     4/F
    5. Kelly Andolino             0:03:28   0:06:58     39     5/F
    6. Mia Baxendale              0:03:29   0:07:00     40     6/F
    7. Mary Bostwick              0:03:30   0:07:02     41     7/F
    8. Kaitlin Kasperski          0:03:37   0:07:17     45     8/F
    9. Christina Kinney           0:03:41   0:07:25     47     9/F
   10. Nicole Mommertz            0:03:43   0:07:29     48    10/F
   11. Andrea Kresman             0:03:50   0:07:43     49    11/F
   12. Ann More                   0:03:51   0:07:45     50    12/F
   13. Chris Klein                0:03:53   0:07:49     51    13/F
   14. Debbie Miller              0:03:56   0:07:55     53    14/F
   15. Heather Burger             0:03:58   0:07:59     55    15/F
   16. Kim Kalman                 0:03:59   0:08:01     56    16/F
   17. Victoria Crago             0:04:00   0:08:03     58    17/F
   18. Danyelle Tower             0:04:01   0:08:05     59    18/F
   19. Kathi Black                0:04:02   0:08:07     61    19/F
   20. Cheryl Camillo             0:04:24   0:08:51     64    20/F
   21. Laurie Grundner            0:04:29   0:09:01     66    21/F
   22. Tina Marie Drumm           0:04:43   0:09:29     68    22/F
   23. Lisa Buzby                 0:04:44   0:09:31     69    23/F
   24. Rayann Wheeler             0:04:45   0:09:33     70    24/F
   25. Mac Mackenzie              0:05:09   0:10:22     71    25/F
   26. Kristen Drozdzak           0:05:53   0:11:50     73    26/F
   27. Mary Skinner               0:06:28   0:13:01     74    27/F



Top of Page








Men - Age Group Results       Women - Age Groups       Overall Finish Order       Age Graded Overall
 
 
 
Men M
----------------------------------------------------------------
Place  Name                      Time     Pace    OvrAll   InSex
----------------------------------------------------------------
    1. Kody Parrott              0:02:17  0:04:36      1     1/M
    2. Leonard Pietrafesa        0:02:19  0:04:40      2     2/M
    3. Jacob Brill               0:02:19  0:04:40      3     3/M
    4. Tom Williams              0:02:22  0:04:46      4     4/M
    5. Konstantin Van Schendel   0:02:22  0:04:46      5     5/M
    6. Cameron Eastland          0:02:24  0:04:50      6     6/M
    7. Zachary Weeks             0:02:28  0:04:58      7     7/M
    8. Brady Heeter              0:02:28  0:04:58      8     8/M
    9. Dylan Stearns             0:02:31  0:05:04      9     9/M
   10. Aidian O'Shea             0:02:31  0:05:04     10    10/M
   11. Ian Shear                 0:02:42  0:05:26     11    11/M
   12. Henry Chen                0:02:43  0:05:28     12    12/M
   13. Omar Radwin               0:02:43  0:05:28     13    13/M
   14. Jeff Sipos                0:02:44  0:05:30     14    14/M
   15. Alex Glynn                0:02:46  0:05:34     15    15/M
   16. James Clark               0:02:47  0:05:36     17    16/M
   17. John Clark                0:02:47  0:05:36     18    17/M
   18. Roger King                0:02:50  0:05:42     19    18/M
   19. Casey Glynn               0:02:51  0:05:44     20    19/M
   20. Michael Berger            0:02:51  0:05:44     21    20/M
   21. John Salciccioli          0:02:55  0:05:52     22    21/M
   22. Herman Van Leeuwen        0:02:58  0:05:58     23    22/M
   23. Steve Mikos               0:02:58  0:05:58     24    23/M
   24. Jason Shear               0:03:01  0:06:04     25    24/M
   25. Frank Gioia               0:03:01  0:06:04     26    25/M
   26. Curt Mancuso              0:03:04  0:06:10     27    26/M
   27. Mike Baker                0:03:05  0:06:12     28    27/M
   28. Matthew Zac               0:03:08  0:06:18     30    28/M
   29. Glenn Osswald             0:03:17  0:06:36     31    29/M
   30. Joe Chimino               0:03:18  0:06:38     32    30/M
   31. John Wayda                0:03:24  0:06:50     35    31/M
   32. Bill McMullen             0:03:24  0:06:50     36    32/M
   33. Chris Mattice             0:03:26  0:06:54     37    33/M
   34. Frans DeWaal              0:03:26  0:06:54     38    34/M
   35. Henry Peterson            0:03:33  0:07:08     42    35/M
   36. Fran Warthling            0:03:34  0:07:10     43    36/M
   37. Toby Fredrick             0:03:35  0:07:13     44    37/M
   38. Scott Bylewski            0:03:41  0:07:25     46    38/M
   39. Michael Chapman           0:03:55  0:07:53     52    39/M
   40. Jordan May                0:03:58  0:07:59     54    40/M
   41. Mike Beato                0:04:00  0:08:03     57    41/M
   42. Matt Parker               0:04:01  0:08:05     60    42/M
   43. Rob Vanderwerf            0:04:12  0:08:27     62    43/M
   44. John Stewart              0:04:19  0:08:41     63    44/M
   45. Orlando Hann              0:04:25  0:08:53     65    45/M
   46. James Smigelski           0:04:37  0:09:17     67    46/M
   47. Ed Russell                0:05:17  0:10:38     72    47/M



Top of Page








Age Graded Overall       Men - Age Groups       Women - Age Groups       Overall Finish Order
-------------------------------------------------------------------------------
AGPlace  Name                      AGtime    AGpct    Age    Time      Place   
-------------------------------------------------------------------------------
      1. James Clark               0:02:14   75.65%     10   0:02:47      17 
      2. Brady Heeter              0:02:15   75.08%     14   0:02:28       8 
      3. Kody Parrott              0:02:17   73.72%     22   0:02:17       1 
      4. Jacob Brill               0:02:18   73.21%     20   0:02:19       3 
      5. Frank Gioia               0:02:18   73.19%     66   0:03:01      26 
      6. Konstantin Van Schendel   0:02:18   73.09%     18   0:02:22       5 
      7. Cameron Eastland          0:02:18   73.01%     17   0:02:24       6 
      8. Leonard Pietrafesa        0:02:19   72.69%     21   0:02:19       2 
      9. Olivia Ziegler            0:02:37   72.18%     10   0:03:08      29 
     10. Herman Van Leeuwen        0:02:21   71.40%     61   0:02:58      23 
     11. Angelina Myles            0:02:38   71.35%     16   0:02:46      16 
     12. Colleen Magnussen         0:02:39   71.29%     59   0:03:21      34 
     13. Tom Williams              0:02:22   71.13%     33   0:02:22       4 
     14. Zachary Weeks             0:02:26   69.37%     19   0:02:28       7 
     15. Steve Mikos               0:02:26   69.15%     57   0:02:58      24 
     16. Alex Glynn                0:02:27   68.64%     13   0:02:46      15 
     17. Aidian O'Shea             0:02:29   67.99%     19   0:02:31      10 
     18. John Clark                0:02:29   67.76%     47   0:02:47      18 
     19. Dylan Stearns             0:02:30   67.39%     20   0:02:31       9 
     20. Ian Shear                 0:02:30   67.14%     15   0:02:42      11 
     21. Joe Chimino               0:02:31   66.91%     66   0:03:18      32 
     22. Mac Mackenzie             0:02:49   66.85%     76   0:05:09      71 
     23. Casey Glynn               0:02:32   66.63%     13   0:02:51      20 
     24. Curt Mancuso              0:02:32   66.37%     56   0:03:04      27 
     25. Bill McMullen             0:02:34   65.64%     67   0:03:24      36 
     26. Henry Chen                0:02:39   63.67%     18   0:02:43      12 
     27. Frans DeWaal              0:02:39   63.63%     65   0:03:26      38 
     28. Matthew Zac               0:02:42   62.41%     12   0:03:08      30 
     29. Jeff Sipos                0:02:42   62.35%     36   0:02:44      14 
     30. Omar Radwin               0:02:43   61.96%     28   0:02:43      13 
     31. Debbie Miller             0:03:03   61.63%     60   0:03:56      53 
     32. Ann More                  0:03:05   61.12%     58   0:03:51      50 
     33. Jason Shear               0:02:46   60.88%     44   0:03:01      25 
     34. Mia Baxendale             0:03:10   59.60%     48   0:03:29      40 
     35. Mike Baker                0:02:50   59.56%     44   0:03:05      28 
     36. Michael Berger            0:02:50   59.51%     20   0:02:51      21 
     37. Roger King                0:02:50   59.41%     34   0:02:50      19 
     38. John Salciccioli          0:02:51   58.98%     37   0:02:55      22 
     39. Glenn Osswald             0:02:51   58.98%     50   0:03:17      31 
     40. Chris Klein               0:03:15   58.04%     55   0:03:53      51 
     41. Cheryl Camillo            0:03:17   57.28%     62   0:04:24      64 
     42. Henry Peterson            0:02:57   56.99%     11   0:03:33      42 
     43. Elizabeth Czapski         0:03:20   56.50%     32   0:03:20      33 
     44. Kelly Andolino            0:03:20   56.37%     41   0:03:28      39 
     45. Fran Warthling            0:03:01   55.66%     53   0:03:34      43 
     46. John Wayda                0:03:02   55.47%     47   0:03:24      35 
     47. Mike Beato                0:03:06   54.19%     64   0:04:00      57 
     48. Mary Bostwick             0:03:30   53.81%     29   0:03:30      41 
     49. Toby Fredrick             0:03:09   53.56%     49   0:03:35      44 
     50. Tina Marie Drumm          0:03:31   53.43%     62   0:04:43      68 
     51. Kathi Black               0:03:36   52.36%     50   0:04:02      61 
     52. Kaitlin Kasperski         0:03:37   52.07%     30   0:03:37      45 
     53. Victoria Crago            0:03:38   51.90%     48   0:04:00      58 
     54. Laurie Grundner           0:03:38   51.73%     57   0:04:29      66 
     55. James Smigelski           0:03:16   51.49%     72   0:04:37      67 
     56. Kim Kalman                0:03:41   51.25%     46   0:03:59      56 
     57. Scott Bylewski            0:03:17   51.20%     47   0:03:41      46 
     58. Christina Kinney          0:03:41   51.13%     30   0:03:41      47 
     59. Nicole Mommertz           0:03:43   50.67%     33   0:03:43      48 
     60. Chris Mattice             0:03:20   50.59%     38   0:03:26      37 
     61. Andrea Kresman            0:03:48   49.60%     38   0:03:50      49 
     62. Danyelle Tower            0:03:48   49.51%     43   0:04:01      59 
     63. Heather Burger            0:03:51   48.84%     40   0:03:58      55 
     64. Ed Russell                0:03:27   48.76%     77   0:05:17      72 
     65. Orlando Hann              0:03:32   47.67%     10   0:04:25      65 
     66. Rob Vanderwerf            0:03:35   46.88%     52   0:04:12      62 
     67. Matt Parker               0:03:39   46.15%     45   0:04:01      60 
     68. Lisa Buzby                0:04:07   45.77%     52   0:04:44      69 
     69. Jordan May                0:03:44   45.05%     41   0:03:58      54 
     70. Michael Chapman           0:03:55   42.98%     34   0:03:55      52 
     71. Rayann Wheeler            0:04:23   42.98%     46   0:04:45      70 
     72. John Stewart              0:04:06   41.03%     40   0:04:19      63 
     73. Kristen Drozdzak          0:04:59   37.80%     54   0:05:53      73 
     74. Mary Skinner              0:06:04   31.03%     44   0:06:28      74 

Top of Page


Race Results At: BuffaloRunners.com